Time;durP1;ratioP1;P1;durP2;ratioP2;P2;SDS_P1;SDS_P2;PMS_P1;PMS_P2;Temp;Humidity;BMP_temperature;BMP_pressure;BME280_temperature;BME280_humidity;BME280_pressure;Samples;Min_cycle;Max_cycle;Signal;HPM_P1;HPM_P2
2022/05/05 00:02:01;;;;;;;4.25;3.28;;;11.60;99.90;;;;;;5014053;28;20030;-32
2022/05/05 00:04:27;;;;;;;3.80;3.10;;;11.60;99.90;;;;;;5017158;28;20033;-32
2022/05/05 00:06:52;;;;;;;3.85;3.25;;;11.50;99.90;;;;;;5016800;28;20029;-32
2022/05/05 00:09:18;;;;;;;4.28;3.72;;;11.50;99.90;;;;;;5016653;28;20021;-32
2022/05/05 00:14:31;;;;;;;4.97;3.55;;;11.50;99.90;;;;;;5011988;28;20125;-33
2022/05/05 00:16:59;;;;;;;4.53;3.35;;;11.50;99.90;;;;;;5016660;28;20573;-33
2022/05/05 00:19:26;;;;;;;4.05;3.55;;;11.50;99.90;;;;;;5012859;28;20044;-33
2022/05/05 00:21:52;;;;;;;4.40;3.33;;;11.50;99.90;;;;;;5011295;28;20029;-32
2022/05/05 00:24:18;;;;;;;4.03;2.97;;;11.50;99.90;;;;;;5015773;28;20112;-32
2022/05/05 00:26:43;;;;;;;4.95;3.35;;;11.50;99.90;;;;;;5012830;28;20036;-32
2022/05/05 00:29:10;;;;;;;3.97;3.05;;;11.50;99.90;;;;;;5009568;28;20037;-33
2022/05/05 00:31:35;;;;;;;2.85;2.65;;;11.50;99.90;;;;;;5011219;28;20422;-32
2022/05/05 00:34:01;;;;;;;3.97;2.88;;;11.50;99.90;;;;;;5009082;28;20025;-32
2022/05/05 00:36:27;;;;;;;3.20;2.53;;;11.50;99.90;;;;;;5016346;28;20042;-32
2022/05/05 00:38:52;;;;;;;3.00;2.70;;;11.50;99.90;;;;;;5015541;28;20440;-32
2022/05/05 00:41:18;;;;;;;3.75;2.72;;;11.50;99.90;;;;;;5014790;28;20433;-32
2022/05/05 00:43:44;;;;;;;3.92;3.22;;;11.60;99.90;;;;;;5015070;28;20080;-33
2022/05/05 00:46:09;;;;;;;3.58;3.15;;;11.50;99.90;;;;;;5013483;28;20026;-32
2022/05/05 00:48:35;;;;;;;4.85;3.47;;;11.50;99.90;;;;;;5012877;28;20036;-32
2022/05/05 00:51:00;;;;;;;4.72;3.83;;;11.50;99.90;;;;;;5014733;28;20029;-32
2022/05/05 00:53:26;;;;;;;4.13;3.42;;;11.40;99.90;;;;;;5009848;28;20034;-32
2022/05/05 00:56:02;;;;;;;3.22;2.92;;;11.40;99.90;;;;;;5013820;28;20026;-32
2022/05/05 00:58:28;;;;;;;4.28;3.05;;;11.40;99.90;;;;;;5018946;28;20539;-32
2022/05/05 01:00:55;;;;;;;4.45;3.33;;;11.40;99.90;;;;;;5015272;23;20054;-73
2022/05/05 01:03:22;;;;;;;4.13;3.50;;;11.40;99.90;;;;;;4966370;28;20042;-74
2022/05/05 01:05:47;;;;;;;4.30;3.33;;;11.40;99.90;;;;;;4977792;28;20132;-74
2022/05/05 01:08:13;;;;;;;5.55;3.88;;;11.40;99.90;;;;;;4974548;28;20141;-74
2022/05/05 01:10:39;;;;;;;4.03;3.25;;;11.40;99.90;;;;;;4984072;28;20146;-74
2022/05/05 01:13:05;;;;;;;4.15;3.60;;;11.50;99.90;;;;;;4981248;28;20101;-74
2022/05/05 01:15:33;;;;;;;4.90;3.30;;;11.40;99.90;;;;;;4967017;28;20042;-74
2022/05/05 01:17:59;;;;;;;3.90;3.40;;;11.40;99.90;;;;;;4977774;28;20502;-75
2022/05/05 01:20:24;;;;;;;4.25;3.30;;;11.40;99.90;;;;;;4985109;28;20080;-74
2022/05/05 01:22:50;;;;;;;4.35;3.45;;;11.30;99.90;;;;;;4983746;28;20117;-74
2022/05/05 01:28:14;;;;;;;4.18;3.08;;;11.00;99.90;;;;;;4985820;28;20085;-74
2022/05/05 01:30:44;;;;;;;5.25;3.30;;;11.00;99.90;;;;;;4983614;28;20496;-74
2022/05/05 01:33:15;;;;;;;3.60;2.78;;;11.00;99.90;;;;;;4985620;28;20145;-73
2022/05/05 01:35:42;;;;;;;4.40;3.25;;;11.00;99.90;;;;;;4969404;28;20081;-74
2022/05/05 01:38:09;;;;;;;3.72;2.80;;;11.00;99.90;;;;;;4985080;28;20034;-73
2022/05/05 01:40:36;;;;;;;4.35;3.47;;;11.00;99.90;;;;;;4986352;28;20050;-75
2022/05/05 01:43:03;;;;;;;3.45;2.97;;;11.00;99.90;;;;;;4979958;28;20986;-73
2022/05/05 01:45:30;;;;;;;4.15;3.15;;;11.00;99.90;;;;;;4987469;28;20117;-74
2022/05/05 01:47:55;;;;;;;4.45;3.25;;;11.00;99.90;;;;;;4983080;28;20547;-74
2022/05/05 01:50:22;;;;;;;3.60;3.05;;;10.70;99.90;;;;;;4989120;28;20031;-74
2022/05/05 01:52:48;;;;;;;4.03;3.38;;;10.70;99.90;;;;;;4974867;28;20089;-73
2022/05/05 01:55:14;;;;;;;4.85;3.40;;;10.80;99.90;;;;;;4988603;28;20045;-73
2022/05/05 01:57:39;;;;;;;5.55;3.67;;;10.70;99.90;;;;;;4984537;28;20049;-73
2022/05/05 02:00:06;;;;;;;5.15;4.20;;;10.80;99.90;;;;;;4991701;28;20043;-74
2022/05/05 02:02:32;;;;;;;5.63;3.75;;;10.70;99.90;;;;;;4987295;28;20075;-75
2022/05/05 02:04:57;;;;;;;4.20;3.55;;;10.80;99.90;;;;;;4990700;28;20034;-74
2022/05/05 02:07:23;;;;;;;5.55;3.30;;;10.90;99.90;;;;;;4987645;28;20034;-74
2022/05/05 02:09:49;;;;;;;5.15;3.40;;;10.80;99.90;;;;;;4991985;28;20026;-74
2022/05/05 02:12:14;;;;;;;4.50;3.40;;;10.70;99.90;;;;;;4972657;28;20421;-74
2022/05/05 02:14:52;;;;;;;4.85;3.45;;;10.80;99.90;;;;;;4988015;28;20033;-74
2022/05/05 02:17:18;;;;;;;4.03;3.42;;;10.70;99.90;;;;;;4968581;28;20057;-74
2022/05/05 02:19:44;;;;;;;4.68;4.00;;;10.60;99.90;;;;;;4985295;28;20047;-74
2022/05/05 02:22:11;;;;;;;5.30;4.35;;;10.50;99.90;;;;;;4992151;28;20037;-74
2022/05/05 02:24:36;;;;;;;4.35;3.83;;;10.40;99.90;;;;;;4973165;28;20058;-73
2022/05/05 02:27:02;;;;;;;19.80;4.22;;;10.50;99.90;;;;;;4987004;28;20083;-75
2022/05/05 02:29:27;;;;;;;13.73;3.78;;;10.40;99.90;;;;;;4972784;28;20030;-75
2022/05/05 02:31:53;;;;;;;4.30;3.40;;;10.10;99.90;;;;;;4991332;28;20717;-75
2022/05/05 02:34:19;;;;;;;5.60;3.60;;;10.20;99.90;;;;;;4993048;28;20053;-75
2022/05/05 02:39:29;;;;;;;5.18;4.35;;;10.20;99.90;;;;;;4991186;28;20583;-74
2022/05/05 02:41:54;;;;;;;13.60;4.32;;;10.10;99.90;;;;;;4977684;28;20062;-75
2022/05/05 02:44:20;;;;;;;9.07;2.50;;;10.00;99.90;;;;;;4986878;28;20382;-75
2022/05/05 02:46:45;;;;;;;3.50;2.30;;;9.80;99.90;;;;;;4987919;28;20042;-75
2022/05/05 02:49:15;;;;;;;2.20;2.00;;;9.80;99.90;;;;;;4990909;28;20023;-74
2022/05/05 02:51:40;;;;;;;2.30;2.10;;;9.70;99.90;;;;;;4993702;28;20069;-75
2022/05/05 02:56:50;;;;;;;2.85;2.42;;;9.70;99.90;;;;;;4984879;28;20045;-75
2022/05/05 02:59:16;;;;;;;3.03;2.70;;;9.50;99.90;;;;;;4991405;28;20038;-75
2022/05/05 03:01:41;;;;;;;4.78;2.30;;;9.70;99.90;;;;;;4984938;28;20050;-75
2022/05/05 03:04:09;;;;;;;1.95;1.73;;;9.80;99.90;;;;;;4989260;28;20030;-75
2022/05/05 03:06:35;;;;;;;3.20;2.67;;;9.90;99.90;;;;;;4984616;28;20887;-75
2022/05/05 03:09:01;;;;;;;2.30;2.10;;;9.90;99.90;;;;;;4987616;28;20038;-74
2022/05/05 03:11:26;;;;;;;3.47;2.70;;;10.00;99.90;;;;;;4989001;28;20031;-75
2022/05/05 03:13:52;;;;;;;3.05;2.70;;;9.90;99.90;;;;;;4988246;28;20031;-74
2022/05/05 03:16:17;;;;;;;4.25;2.85;;;9.80;99.90;;;;;;4986191;28;20529;-74
2022/05/05 03:18:43;;;;;;;3.20;2.60;;;9.80;99.90;;;;;;4984973;28;20039;-75
2022/05/05 03:21:09;;;;;;;2.72;2.53;;;9.80;99.90;;;;;;4988741;28;20022;-74
2022/05/05 03:23:35;;;;;;;3.13;2.63;;;9.80;99.90;;;;;;4987685;28;20046;-74
2022/05/05 03:26:00;;;;;;;4.72;3.20;;;9.80;99.90;;;;;;4985856;28;20030;-74
2022/05/05 03:28:26;;;;;;;54.15;5.15;;;9.80;99.90;;;;;;4988772;28;20096;-74
2022/05/05 03:30:52;;;;;;;4.53;3.40;;;9.50;99.90;;;;;;4984448;28;20069;-74
2022/05/05 03:33:17;;;;;;;6.75;2.90;;;9.40;99.90;;;;;;4987883;28;20034;-73
2022/05/05 03:35:43;;;;;;;4.13;2.92;;;9.40;99.90;;;;;;4986354;28;20152;-74
2022/05/05 03:38:09;;;;;;;4.88;3.10;;;9.50;99.90;;;;;;4990355;28;20149;-74
2022/05/05 03:40:35;;;;;;;3.83;3.08;;;9.60;99.90;;;;;;4955185;28;20053;-74
2022/05/05 03:43:01;;;;;;;3.42;3.13;;;9.60;99.90;;;;;;4987731;28;20423;-74
2022/05/05 03:45:27;;;;;;;4.05;3.33;;;9.60;99.90;;;;;;4983363;28;20728;-74
2022/05/05 03:47:53;;;;;;;4.57;3.17;;;9.70;99.90;;;;;;4987880;28;20040;-74
2022/05/05 03:50:18;;;;;;;4.97;3.90;;;9.70;99.90;;;;;;4984543;28;20496;-75
2022/05/05 03:52:49;;;;;;;5.15;3.55;;;9.80;99.90;;;;;;4987815;28;20054;-74
2022/05/05 03:55:15;;;;;;;3.85;3.42;;;9.80;99.90;;;;;;4983944;28;20109;-75
2022/05/05 03:57:41;;;;;;;5.15;3.72;;;9.80;99.90;;;;;;4985558;28;20388;-75
2022/05/05 04:00:07;;;;;;;4.88;3.55;;;9.90;99.90;;;;;;4988130;28;20041;-75
2022/05/05 04:02:32;;;;;;;4.55;3.72;;;9.90;99.90;;;;;;4985630;28;20054;-74
2022/05/05 04:04:58;;;;;;;8.32;4.05;;;9.90;99.90;;;;;;4986897;28;20030;-75
2022/05/05 04:07:24;;;;;;;5.60;4.25;;;9.90;99.90;;;;;;4987373;28;20462;-75
2022/05/05 04:09:49;;;;;;;4.30;3.90;;;9.90;99.90;;;;;;4987933;28;20721;-74
2022/05/05 04:12:15;;;;;;;5.03;4.18;;;9.90;99.90;;;;;;4984821;28;20030;-75
2022/05/05 04:14:41;;;;;;;6.72;4.20;;;9.90;99.90;;;;;;4987083;28;20038;-75
2022/05/05 04:17:07;;;;;;;5.35;4.15;;;9.90;99.90;;;;;;4988321;28;20042;-75
2022/05/05 04:19:33;;;;;;;6.72;4.47;;;9.90;99.90;;;;;;4985936;28;20117;-75
2022/05/05 04:21:59;;;;;;;6.10;4.10;;;9.90;99.90;;;;;;4985965;28;20034;-74
2022/05/05 04:24:24;;;;;;;5.47;3.70;;;9.90;99.90;;;;;;4969420;28;20034;-74
2022/05/05 04:26:50;;;;;;;4.70;3.63;;;9.90;99.90;;;;;;4987507;28;20069;-74
2022/05/05 04:29:16;;;;;;;5.13;4.18;;;10.00;99.90;;;;;;4985490;28;20076;-75
2022/05/05 04:31:43;;;;;;;5.47;3.50;;;9.90;99.90;;;;;;4984365;28;20074;-74
2022/05/05 04:34:09;;;;;;;6.25;3.75;;;10.00;99.90;;;;;;4967705;28;20049;-73
2022/05/05 04:36:36;;;;;;;3.42;3.10;;;9.90;99.90;;;;;;4979828;28;20100;-74
2022/05/05 04:39:03;;;;;;;6.55;4.05;;;9.90;99.90;;;;;;4984808;28;20045;-74
2022/05/05 04:41:29;;;;;;;4.38;3.78;;;9.90;99.90;;;;;;4981646;28;20115;-73
2022/05/05 04:43:56;;;;;;;4.18;3.78;;;10.00;99.90;;;;;;4986348;28;20137;-74
2022/05/05 04:46:22;;;;;;;7.97;3.88;;;10.00;99.90;;;;;;4989667;28;20041;-74
2022/05/05 04:48:48;;;;;;;6.45;3.90;;;10.10;99.90;;;;;;4971200;28;20386;-74
2022/05/05 04:51:15;;;;;;;4.38;3.47;;;10.00;99.90;;;;;;4991521;28;20189;-74
2022/05/05 04:53:41;;;;;;;6.95;3.60;;;9.90;99.90;;;;;;4995027;28;20034;-74
2022/05/05 04:56:10;;;;;;;4.22;3.60;;;9.90;99.90;;;;;;4990422;28;20042;-73
2022/05/05 04:58:36;;;;;;;4.78;3.58;;;9.90;99.90;;;;;;4974414;28;20038;-74
2022/05/05 05:01:03;;;;;;;5.05;3.97;;;10.00;99.90;;;;;;4985854;28;20058;-74
2022/05/05 05:03:36;;;;;;;6.32;3.58;;;10.10;99.90;;;;;;4990767;28;20037;-75
2022/05/05 05:06:04;;;;;;;4.18;3.50;;;10.10;99.90;;;;;;4974811;28;20034;-73
2022/05/05 05:08:29;;;;;;;5.75;3.90;;;10.10;99.90;;;;;;4980906;28;20049;-74
2022/05/05 05:10:56;;;;;;;5.57;4.15;;;10.20;99.90;;;;;;4986540;28;20409;-74
2022/05/05 05:13:21;;;;;;;5.28;4.05;;;10.10;99.90;;;;;;4987793;28;20129;-74
2022/05/05 05:15:47;;;;;;;6.82;3.92;;;10.10;99.90;;;;;;4965774;28;20124;-74
2022/05/05 05:18:13;;;;;;;5.82;4.20;;;10.10;99.90;;;;;;4987237;28;20046;-74
2022/05/05 05:20:38;;;;;;;4.80;4.10;;;10.10;99.90;;;;;;4960191;28;20480;-74
2022/05/05 05:23:08;;;;;;;13.52;5.68;;;10.20;99.90;;;;;;4986175;28;20690;-75
2022/05/05 05:25:34;;;;;;;5.15;4.53;;;10.00;99.90;;;;;;4970031;28;21850;-75
2022/05/05 05:28:00;;;;;;;5.07;4.43;;;9.90;99.90;;;;;;4982859;28;20108;-74
2022/05/05 05:30:26;;;;;;;6.07;4.50;;;9.90;99.90;;;;;;4986463;28;20038;-74
2022/05/05 05:32:52;;;;;;;6.25;4.28;;;9.90;99.90;;;;;;4987351;28;20037;-74
2022/05/05 05:35:17;;;;;;;5.20;4.20;;;9.90;99.90;;;;;;4968679;28;20026;-74
2022/05/05 05:37:47;;;;;;;5.25;4.28;;;9.90;99.90;;;;;;4984268;28;20064;-74
2022/05/05 05:40:15;;;;;;;6.68;4.70;;;10.00;99.90;;;;;;4968512;28;20129;-73
2022/05/05 05:42:43;;;;;;;8.07;5.28;;;10.00;99.90;;;;;;4990349;28;20061;-74
2022/05/05 05:45:10;;;;;;;7.07;5.03;;;10.20;99.90;;;;;;4985142;28;20432;-74
2022/05/05 05:47:36;;;;;;;4.90;4.32;;;10.30;99.90;;;;;;4988261;28;20034;-74
2022/05/05 05:50:02;;;;;;;8.32;5.45;;;10.60;99.90;;;;;;4973355;28;20089;-75
2022/05/05 05:52:27;;;;;;;7.03;5.43;;;10.70;99.90;;;;;;4985091;28;20034;-75
2022/05/05 05:54:53;;;;;;;8.45;5.43;;;10.70;99.90;;;;;;4989387;28;20042;-75
2022/05/05 05:57:19;;;;;;;7.00;4.93;;;10.70;99.90;;;;;;4986161;28;20058;-75
2022/05/05 05:59:45;;;;;;;8.38;5.40;;;10.90;99.90;;;;;;4988176;28;20393;-75
2022/05/05 06:04:55;;;;;;;8.57;5.50;;;11.00;99.90;;;;;;4988136;28;20045;-74
2022/05/05 06:07:20;;;;;;;9.15;5.32;;;11.20;99.90;;;;;;4984958;28;20470;-74
2022/05/05 06:09:46;;;;;;;8.68;5.72;;;11.40;99.90;;;;;;4987749;28;20035;-73
2022/05/05 06:12:12;;;;;;;7.53;5.45;;;11.60;99.90;;;;;;4990693;28;20049;-74
2022/05/05 06:14:38;;;;;;;8.15;5.97;;;11.70;99.90;;;;;;4974702;28;20026;-74
2022/05/05 06:17:04;;;;;;;9.93;7.10;;;11.80;99.90;;;;;;4988374;28;20038;-74
2022/05/05 06:19:30;;;;;;;10.15;6.50;;;11.90;99.90;;;;;;4951507;28;20057;-74
2022/05/05 06:21:57;;;;;;;8.98;6.07;;;11.90;99.90;;;;;;4988750;28;20038;-75
2022/05/05 06:24:23;;;;;;;9.00;6.18;;;12.10;99.90;;;;;;4971289;28;20037;-74
2022/05/05 06:26:49;;;;;;;8.20;6.85;;;12.30;99.90;;;;;;4967916;28;20037;-75
2022/05/05 06:29:14;;;;;;;8.38;6.38;;;12.50;99.90;;;;;;4983974;28;20038;-74
2022/05/05 06:31:40;;;;;;;8.23;6.45;;;12.60;99.90;;;;;;4957191;28;20043;-74
2022/05/05 06:34:09;;;;;;;9.93;7.07;;;12.90;99.90;;;;;;4967705;28;20031;-74
2022/05/05 06:36:35;;;;;;;10.15;7.80;;;13.00;99.90;;;;;;4968432;28;20042;-74
2022/05/05 06:39:01;;;;;;;11.50;7.38;;;13.20;99.90;;;;;;4965909;28;20629;-74
2022/05/05 06:41:28;;;;;;;10.77;7.43;;;13.40;99.90;;;;;;4969775;28;20038;-74
2022/05/05 06:43:55;;;;;;;11.10;8.15;;;13.30;99.90;;;;;;4974869;28;20062;-74
2022/05/05 06:46:21;;;;;;;11.30;8.32;;;13.40;99.90;;;;;;4976092;28;20037;-75
2022/05/05 06:48:46;;;;;;;10.88;7.28;;;13.40;99.90;;;;;;4974570;28;20034;-74
2022/05/05 06:51:12;;;;;;;12.10;8.02;;;13.40;99.90;;;;;;4973067;28;20042;-74
2022/05/05 06:53:38;;;;;;;12.20;8.15;;;13.50;99.90;;;;;;4972166;28;20073;-74
2022/05/05 06:56:05;;;;;;;10.75;7.90;;;13.70;99.90;;;;;;4974182;28;20372;-74
2022/05/05 06:58:30;;;;;;;12.88;8.63;;;13.60;99.90;;;;;;4974215;28;20038;-74
2022/05/05 07:03:40;;;;;;;10.85;7.65;;;13.80;99.90;;;;;;4992343;28;20040;-75
2022/05/05 07:06:09;;;;;;;9.88;7.47;;;13.70;99.90;;;;;;4992527;28;20118;-75
2022/05/05 07:11:21;;;;;;;9.50;7.95;;;13.90;99.90;;;;;;4991778;28;20037;-74
2022/05/05 07:13:47;;;;;;;11.52;7.13;;;13.90;99.90;;;;;;4976957;28;20034;-74
2022/05/05 07:16:13;;;;;;;10.90;7.40;;;14.00;99.90;;;;;;4990041;28;20718;-75
2022/05/05 07:18:39;;;;;;;8.32;6.07;;;13.90;99.90;;;;;;4972268;28;20026;-75
2022/05/05 07:21:06;;;;;;;10.80;7.13;;;13.80;99.90;;;;;;4973660;28;20038;-74
2022/05/05 07:23:32;;;;;;;10.35;6.60;;;13.60;99.90;;;;;;4985512;28;20061;-74
2022/05/05 07:25:58;;;;;;;10.00;7.50;;;13.70;99.90;;;;;;4988608;28;20053;-74
2022/05/05 07:28:27;;;;;;;9.13;7.45;;;13.70;99.90;;;;;;4990460;28;20030;-75
2022/05/05 07:30:53;;;;;;;11.05;7.15;;;13.70;99.90;;;;;;4972299;28;20398;-75
2022/05/05 07:33:20;;;;;;;8.50;6.07;;;13.80;99.90;;;;;;4971162;28;20026;-74
2022/05/05 07:35:47;;;;;;;10.02;7.95;;;13.80;99.90;;;;;;4983321;28;20038;-74
2022/05/05 07:38:14;;;;;;;11.30;7.60;;;13.70;99.90;;;;;;4974655;28;20049;-74
2022/05/05 07:40:39;;;;;;;11.23;7.85;;;13.60;99.90;;;;;;4975978;28;20038;-74
2022/05/05 07:43:06;;;;;;;9.80;7.15;;;13.70;99.90;;;;;;4987621;28;20038;-74
2022/05/05 07:45:32;;;;;;;9.82;7.22;;;13.60;99.90;;;;;;4994041;28;20544;-74
2022/05/05 07:48:00;;;;;;;9.32;6.70;;;13.50;99.90;;;;;;4973295;28;20045;-75
2022/05/05 07:50:35;;;;;;;9.90;7.07;;;13.60;99.90;;;;;;4973105;28;20034;-74
2022/05/05 07:53:01;;;;;;;14.05;7.72;;;13.60;99.90;;;;;;4959624;28;20030;-75
2022/05/05 07:55:27;;;;;;;11.80;8.10;;;13.60;99.90;;;;;;4990954;28;20275;-74
2022/05/05 07:57:53;;;;;;;9.32;7.25;;;13.70;99.90;;;;;;4974498;28;20034;-74
2022/05/05 08:00:19;;;;;;;11.73;7.95;;;13.70;99.90;;;;;;4991441;28;20046;-74
2022/05/05 08:02:44;;;;;;;11.00;7.20;;;13.70;99.90;;;;;;4987755;28;20498;-74
2022/05/05 08:05:23;;;;;;;10.93;8.18;;;13.70;99.90;;;;;;4989056;28;20037;-74
2022/05/05 08:07:51;;;;;;;13.65;8.52;;;13.70;99.90;;;;;;4987257;28;20037;-74
2022/05/05 08:10:27;;;;;;;11.00;7.60;;;13.80;99.90;;;;;;4973866;28;20117;-74
2022/05/05 08:12:53;;;;;;;10.30;7.78;;;13.80;99.90;;;;;;4986859;28;20030;-74
2022/05/05 08:15:20;;;;;;;11.18;7.80;;;13.80;99.90;;;;;;4979166;28;20034;-74
2022/05/05 08:17:48;;;;;;;10.15;7.93;;;13.80;99.90;;;;;;4973432;28;20100;-74
2022/05/05 08:20:15;;;;;;;11.30;7.93;;;13.70;99.90;;;;;;4972744;28;20038;-74
2022/05/05 08:22:41;;;;;;;12.68;8.18;;;13.80;99.90;;;;;;4991426;28;20651;-74
2022/05/05 08:30:43;;;;;;;11.45;7.68;;;14.10;99.90;;;;;;4984003;28;20497;-74
2022/05/05 08:33:13;;;;;;;9.32;7.22;;;14.00;99.90;;;;;;4970206;28;20026;-74
2022/05/05 08:35:42;;;;;;;11.30;7.38;;;14.10;99.90;;;;;;4986593;28;20145;-75
2022/05/05 08:38:14;;;;;;;11.13;7.60;;;14.20;99.90;;;;;;4975443;28;20034;-74
2022/05/05 08:40:41;;;;;;;11.15;7.65;;;14.30;99.90;;;;;;4968656;28;20117;-74
2022/05/05 08:43:08;;;;;;;8.85;6.75;;;14.20;99.90;;;;;;4985990;28;20438;-75
2022/05/05 08:45:36;;;;;;;8.30;6.70;;;14.10;99.90;;;;;;4970701;28;20023;-74
2022/05/05 08:48:19;;;;;;;10.13;7.22;;;14.20;99.90;;;;;;4981576;28;20049;-74
2022/05/05 08:51:00;;;;;;;11.73;7.78;;;14.10;99.90;;;;;;4982862;28;20041;-74
2022/05/05 08:53:40;;;;;;;9.82;6.88;;;14.10;99.90;;;;;;4973667;28;20054;-74
2022/05/05 08:56:07;;;;;;;8.90;6.95;;;14.20;99.90;;;;;;4989280;28;20418;-74
2022/05/05 08:58:34;;;;;;;9.68;7.10;;;14.30;99.90;;;;;;4985558;28;20489;-73
2022/05/05 09:01:00;;;;;;;9.13;6.82;;;14.40;99.90;;;;;;4984027;28;20062;-74
2022/05/05 09:03:26;;;;;;;9.23;6.55;;;14.50;99.90;;;;;;4979697;28;20484;-75
2022/05/05 09:05:55;;;;;;;8.82;6.60;;;14.40;99.90;;;;;;4986825;28;20018;-74
2022/05/05 09:08:33;;;;;;;7.68;6.20;;;14.50;99.90;;;;;;4969846;28;20030;-75
2022/05/05 09:11:02;;;;;;;8.02;5.85;;;14.70;99.90;;;;;;4975024;28;20036;-76
2022/05/05 09:13:35;;;;;;;8.27;6.03;;;14.90;99.90;;;;;;4985356;28;20073;-76
2022/05/05 09:16:03;;;;;;;8.45;6.05;;;15.10;99.90;;;;;;4991778;28;20410;-75
2022/05/05 09:18:38;;;;;;;8.48;5.80;;;15.00;99.90;;;;;;4991306;28;20083;-76
2022/05/05 09:21:05;;;;;;;9.00;6.47;;;15.20;99.90;;;;;;4967967;28;20035;-76
2022/05/05 09:26:35;;;;;;;8.60;6.25;;;15.20;99.90;;;;;;4944477;28;20493;-76
2022/05/05 09:29:19;;;;;;;8.00;6.03;;;15.40;99.90;;;;;;4976895;28;20034;-75
2022/05/05 09:31:44;;;;;;;9.38;5.85;;;16.10;99.90;;;;;;4989881;28;20048;-76
2022/05/05 09:34:20;;;;;;;9.63;5.95;;;16.40;99.90;;;;;;4992194;28;20125;-76
2022/05/05 09:36:47;;;;;;;7.90;5.50;;;16.50;99.90;;;;;;4988812;28;20557;-75
2022/05/05 09:39:13;;;;;;;7.75;5.20;;;16.50;99.90;;;;;;4986825;28;21824;-76
2022/05/05 09:41:48;;;;;;;6.28;5.10;;;16.40;99.90;;;;;;4975326;28;20481;-76
2022/05/05 09:44:20;;;;;;;5.68;5.03;;;16.40;99.90;;;;;;4965347;28;20030;-76
2022/05/05 09:46:46;;;;;;;8.52;5.75;;;16.50;99.90;;;;;;4986037;28;20026;-76
2022/05/05 09:49:14;;;;;;;8.93;5.57;;;16.40;99.90;;;;;;4984745;28;20038;-75
2022/05/05 09:57:39;;;;;;;6.30;4.70;;;16.50;99.90;;;;;;4987038;28;20022;-75
2022/05/05 09:57:41;;;;;;;7.50;5.60;;;17.30;99.90;;;;;;4984399;28;20236;-76
2022/05/05 10:00:43;;;;;;;6.72;5.68;;;17.20;99.90;;;;;;4983907;28;20042;-76
2022/05/05 10:05:58;;;;;;;5.63;4.57;;;17.70;99.90;;;;;;4984724;28;20081;-75
2022/05/05 10:08:35;;;;;;;4.50;3.80;;;17.70;99.90;;;;;;4968993;28;20042;-76
2022/05/05 10:11:04;;;;;;;4.13;3.72;;;18.10;99.90;;;;;;4969890;28;20401;-76
2022/05/05 10:13:33;;;;;;;5.88;4.10;;;18.50;96.20;;;;;;4986815;28;20117;-76
2022/05/05 10:16:00;;;;;;;5.63;4.10;;;18.70;93.60;;;;;;4987142;28;20504;-76
2022/05/05 10:18:28;;;;;;;5.35;4.18;;;18.00;93.20;;;;;;4988710;28;20446;-75
2022/05/05 10:20:57;;;;;;;4.70;4.10;;;17.80;94.00;;;;;;4990552;28;20030;-76
2022/05/05 10:23:39;;;;;;;6.03;4.10;;;18.30;95.40;;;;;;4991037;28;20066;-76
2022/05/05 10:26:07;;;;;;;3.38;3.08;;;18.20;96.80;;;;;;4992705;28;20030;-76
2022/05/05 10:28:41;;;;;;;4.50;4.10;;;18.20;87.70;;;;;;4993606;28;20494;-76
2022/05/05 10:31:34;;;;;;;6.03;4.28;;;18.10;89.40;;;;;;4988334;28;20402;-76
2022/05/05 10:34:01;;;;;;;5.93;4.68;;;18.30;85.00;;;;;;4990718;28;20041;-76
2022/05/05 10:36:38;;;;;;;4.88;4.38;;;18.20;95.20;;;;;;4987256;28;20047;-76
2022/05/05 10:39:17;;;;;;;6.40;5.57;;;18.20;95.20;;;;;;4985392;28;20045;-76
2022/05/05 10:41:43;;;;;;;7.85;5.78;;;18.20;96.90;;;;;;4986693;28;20031;-76
2022/05/05 10:44:25;;;;;;;6.63;5.45;;;18.00;91.10;;;;;;4984010;28;20041;-76
2022/05/05 10:46:54;;;;;;;6.35;4.88;;;18.20;89.50;;;;;;4990275;28;20478;-76
2022/05/05 10:49:32;;;;;;;5.65;4.80;;;18.30;90.90;;;;;;4989729;28;20527;-76
2022/05/05 10:52:21;;;;;;;5.13;4.40;;;18.70;91.30;;;;;;4987525;28;20098;-76
2022/05/05 10:54:48;;;;;;;4.57;4.18;;;19.10;90.00;;;;;;4981852;28;20043;-76
2022/05/05 10:57:26;;;;;;;6.43;5.50;;;19.30;90.90;;;;;;4983796;28;20114;-76
2022/05/05 11:00:13;;;;;;;5.88;4.85;;;19.50;89.80;;;;;;4990987;28;20039;-76
2022/05/05 11:03:01;;;;;;;5.13;4.60;;;19.40;83.60;;;;;;4985844;28;20065;-77
2022/05/05 11:05:38;;;;;;;5.28;4.45;;;19.50;82.00;;;;;;4988692;28;20042;-76
2022/05/05 11:08:09;;;;;;;5.57;4.43;;;19.80;75.30;;;;;;4993074;28;20038;-76
2022/05/05 11:10:41;;;;;;;7.72;6.68;;;19.50;78.80;;;;;;4972782;28;20486;-76
2022/05/05 11:13:42;;;;;;;5.85;5.03;;;19.30;80.90;;;;;;4989794;28;20026;-77
2022/05/05 11:22:19;;;;;;;6.93;4.53;;;18.70;74.80;;;;;;4983507;28;20053;-77
2022/05/05 11:24:47;;;;;;;7.40;5.15;;;18.80;72.30;;;;;;4991348;28;20046;-75
2022/05/05 11:27:15;;;;;;;5.13;4.40;;;18.70;84.90;;;;;;4989635;28;20038;-75
2022/05/05 11:29:46;;;;;;;4.85;4.20;;;18.60;88.00;;;;;;4994228;28;20497;-75
2022/05/05 11:32:12;;;;;;;4.38;3.65;;;18.50;81.70;;;;;;4987789;28;20045;-75
2022/05/05 11:34:40;;;;;;;4.82;3.95;;;18.60;83.70;;;;;;4996386;28;20113;-75
2022/05/05 11:37:08;;;;;;;3.72;2.88;;;18.90;84.20;;;;;;4990240;28;20034;-75
2022/05/05 11:39:35;;;;;;;5.83;3.40;;;18.70;69.60;;;;;;4998342;28;20092;-76
2022/05/05 11:42:04;;;;;;;3.83;3.10;;;18.60;65.50;;;;;;4975693;28;20023;-76
2022/05/05 11:44:30;;;;;;;4.30;3.38;;;18.50;81.10;;;;;;4990802;28;20111;-76
2022/05/05 11:46:57;;;;;;;4.75;3.30;;;18.30;85.30;;;;;;4981618;28;20402;-76
2022/05/05 11:49:32;;;;;;;3.85;3.13;;;18.00;73.80;;;;;;4980037;28;20029;-76
2022/05/05 11:51:59;;;;;;;4.57;3.35;;;18.10;82.80;;;;;;4983175;28;20031;-76
2022/05/05 11:54:32;;;;;;;4.78;3.92;;;18.40;83.10;;;;;;4980389;28;20126;-75
2022/05/05 11:56:59;;;;;;;5.50;4.20;;;18.60;73.50;;;;;;4994556;28;20065;-76
2022/05/05 12:02:23;;;;;;;5.68;3.78;;;18.80;85.30;;;;;;4990615;28;20105;-76
2022/05/05 12:05:08;;;;;;;5.45;4.22;;;18.70;80.30;;;;;;4973207;28;20483;-76
2022/05/05 12:07:36;;;;;;;4.97;4.22;;;18.50;79.50;;;;;;4987306;28;20038;-76
2022/05/05 12:10:19;;;;;;;4.07;3.70;;;18.50;89.40;;;;;;4995706;28;20053;-76
2022/05/05 12:12:52;;;;;;;4.90;3.78;;;18.90;78.10;;;;;;4973222;28;20037;-76
2022/05/05 12:15:20;;;;;;;6.15;4.70;;;19.10;76.30;;;;;;4963130;28;20406;-76
2022/05/05 12:17:49;;;;;;;7.32;4.97;;;19.10;82.00;;;;;;4989943;28;20035;-76
2022/05/05 12:20:17;;;;;;;7.15;4.88;;;18.60;66.10;;;;;;4970006;28;20236;-76
2022/05/05 12:22:44;;;;;;;6.35;5.30;;;18.50;90.80;;;;;;4996647;28;20031;-76
2022/05/05 12:25:16;;;;;;;8.13;5.63;;;18.50;85.90;;;;;;4993091;28;20035;-76
2022/05/05 12:27:44;;;;;;;8.68;4.40;;;18.40;90.80;;;;;;4996445;28;20033;-76
2022/05/05 12:30:12;;;;;;;7.43;4.68;;;18.40;84.80;;;;;;4986689;28;20030;-75
2022/05/05 12:32:58;;;;;;;6.97;5.18;;;18.60;87.80;;;;;;4996190;28;20038;-76
2022/05/05 12:35:32;;;;;;;9.93;5.85;;;18.90;80.60;;;;;;4986890;28;20038;-75
2022/05/05 12:38:02;;;;;;;7.25;6.53;;;18.90;93.00;;;;;;4996282;28;20038;-75
2022/05/05 12:40:28;;;;;;;6.70;5.82;;;18.80;94.80;;;;;;4987359;28;20093;-75
2022/05/05 12:43:08;;;;;;;6.82;5.70;;;18.60;89.40;;;;;;4991324;28;20027;-75
2022/05/05 12:45:35;;;;;;;6.97;5.88;;;18.60;90.50;;;;;;4991397;28;20061;-75
2022/05/05 12:48:06;;;;;;;11.07;7.10;;;18.80;92.10;;;;;;4995371;28;20045;-76
2022/05/05 12:50:46;;;;;;;7.28;6.50;;;18.60;92.60;;;;;;4992340;28;20144;-75
2022/05/05 13:01:43;;;;;;;8.30;6.10;;;18.70;90.60;;;;;;4987924;28;20132;-75
2022/05/05 13:04:12;;;;;;;7.85;6.13;;;18.70;94.50;;;;;;4987828;28;20096;-76
2022/05/05 13:06:39;;;;;;;7.68;6.18;;;18.60;95.70;;;;;;4994865;28;20030;-76
2022/05/05 13:09:08;;;;;;;8.43;6.55;;;18.40;93.60;;;;;;4986214;28;20057;-76
2022/05/05 13:12:03;;;;;;;7.03;6.10;;;18.30;90.20;;;;;;4979666;28;20042;-76
2022/05/05 13:14:33;;;;;;;6.93;5.93;;;18.30;96.20;;;;;;4980257;28;20050;-76
2022/05/05 13:17:08;;;;;;;5.35;4.82;;;18.30;90.00;;;;;;4972987;28;20039;-75
2022/05/05 13:19:42;;;;;;;6.13;4.85;;;18.30;90.00;;;;;;4991739;28;20042;-75
2022/05/05 13:22:07;;;;;;;6.13;5.25;;;18.40;85.50;;;;;;4953352;28;20126;-76
2022/05/05 13:24:34;;;;;;;5.70;5.05;;;18.40;92.10;;;;;;4985670;28;20114;-76
2022/05/05 13:27:00;;;;;;;6.38;4.80;;;18.30;85.90;;;;;;4977843;28;20033;-76
2022/05/05 13:29:26;;;;;;;9.38;4.80;;;18.30;90.40;;;;;;4975125;28;20125;-76
2022/05/05 13:31:52;;;;;;;5.78;4.20;;;18.20;92.30;;;;;;4981622;28;20045;-76
2022/05/05 13:34:19;;;;;;;3.97;3.58;;;18.50;90.70;;;;;;4972279;28;20026;-76
2022/05/05 13:36:45;;;;;;;5.35;3.80;;;18.40;91.40;;;;;;4979948;28;20034;-76
2022/05/05 13:39:15;;;;;;;4.38;3.97;;;18.40;89.00;;;;;;4980102;28;20097;-75
2022/05/05 13:41:41;;;;;;;4.63;3.88;;;18.60;92.10;;;;;;4968882;28;20505;-75
2022/05/05 13:44:08;;;;;;;5.75;3.80;;;18.40;87.20;;;;;;4983142;28;20092;-76
2022/05/05 13:46:37;;;;;;;5.13;3.95;;;18.40;90.40;;;;;;4997108;28;20034;-76